Time;durP1;ratioP1;P1;durP2;ratioP2;P2;SDS_P1;SDS_P2;PMS_P1;PMS_P2;Temp;Humidity;BMP_temperature;BMP_pressure;BME280_temperature;BME280_humidity;BME280_pressure;Samples;Min_cycle;Max_cycle;Signal;HPM_P1;HPM_P2
2021/01/09 00:00:57;;;;;;;0.80;0.80;;;;;;;-0.92;81.84;96969.72;299395;208;63004;-54
2021/01/09 00:05:58;;;;;;;0.80;0.80;;;;;;;-0.82;81.32;96978.03;299395;233;63009;-54
2021/01/09 00:10:59;;;;;;;0.80;0.80;;;;;;;-0.88;81.28;96970.91;299395;211;63020;-55
2021/01/09 00:16:02;;;;;;;0.80;0.80;;;;;;;-0.87;82.23;96972.53;299395;219;63008;-55
2021/01/09 00:21:06;;;;;;;0.80;0.80;;;;;;;-0.88;81.91;96968.25;299395;214;63004;-54
2021/01/09 00:26:07;;;;;;;0.80;0.80;;;;;;;-0.88;82.32;96975.41;299417;249;63009;-55
2021/01/09 00:31:08;;;;;;;0.80;0.80;;;;;;;-0.78;81.66;96970.41;299395;284;63005;-56
2021/01/09 00:36:09;;;;;;;0.80;0.80;;;;;;;-0.85;81.96;96973.13;299395;218;63009;-55
2021/01/09 00:41:10;;;;;;;0.80;0.80;;;;;;;-0.93;82.15;96973.41;299395;224;63009;-55
2021/01/09 00:46:18;;;;;;;0.80;0.80;;;;;;;-0.89;82.68;96971.12;299395;204;63009;-54
2021/01/09 00:51:22;;;;;;;0.80;0.80;;;;;;;-0.89;82.50;96973.78;299395;197;63004;-56
2021/01/09 00:56:24;;;;;;;0.80;0.80;;;;;;;-0.91;82.67;96984.66;299417;226;63009;-54
2021/01/09 01:01:25;;;;;;;0.80;0.80;;;;;;;-0.84;82.30;96985.44;299395;226;63005;-56
2021/01/09 01:06:27;;;;;;;0.70;0.70;;;;;;;-0.84;82.72;96990.75;299395;229;63009;-53
2021/01/09 01:11:29;;;;;;;0.80;0.80;;;;;;;-0.84;82.26;96992.59;299395;212;63005;-54
2021/01/09 01:16:31;;;;;;;0.80;0.80;;;;;;;-0.83;82.37;96995.03;299395;229;63009;-55
2021/01/09 01:21:36;;;;;;;0.80;0.80;;;;;;;-0.89;82.24;96989.78;299395;196;63004;-54
2021/01/09 01:26:37;;;;;;;0.80;0.80;;;;;;;-0.92;82.44;96996.34;299395;313;63009;-54
2021/01/09 01:31:39;;;;;;;0.80;0.80;;;;;;;-0.88;82.38;96996.72;299395;233;63005;-54
2021/01/09 01:36:40;;;;;;;0.80;0.80;;;;;;;-0.92;82.54;96996.34;299395;203;63018;-54
2021/01/09 01:41:41;;;;;;;0.80;0.80;;;;;;;-0.86;82.41;97000.81;299395;222;63005;-55
2021/01/09 01:46:45;;;;;;;0.80;0.80;;;;;;;-0.80;82.42;97001.78;299395;236;63009;-54
2021/01/09 01:51:51;;;;;;;0.80;0.80;;;;;;;-0.83;82.55;97005.72;299417;259;63004;-54
2021/01/09 01:56:55;;;;;;;0.80;0.80;;;;;;;-0.85;82.86;97004.28;299373;243;63009;-56
2021/01/09 02:01:56;;;;;;;0.80;0.80;;;;;;;-0.88;82.67;97008.19;299395;197;63005;-54
2021/01/09 02:07:01;;;;;;;0.80;0.80;;;;;;;-0.91;83.16;97013.97;299395;243;63009;-53
2021/01/09 02:12:18;;;;;;;0.80;0.80;;;;;;;-0.92;83.34;97012.31;299395;214;63005;-54
2021/01/09 02:17:19;;;;;;;0.80;0.80;;;;;;;-0.92;83.46;97011.50;299395;232;63009;-56
2021/01/09 02:22:22;;;;;;;0.80;0.80;;;;;;;-0.90;83.30;97015.59;299395;201;63004;-54
2021/01/09 02:27:23;;;;;;;0.80;0.80;;;;;;;-0.86;83.45;97016.78;299395;204;63009;-54
2021/01/09 02:32:33;;;;;;;0.80;0.80;;;;;;;-0.86;83.69;97022.13;299395;197;63005;-54
2021/01/09 02:37:35;;;;;;;0.80;0.80;;;;;;;-0.84;83.76;97014.72;299395;216;63019;-55
2021/01/09 02:42:36;;;;;;;0.80;0.80;;;;;;;-0.88;83.98;97013.53;299395;261;63004;-55
2021/01/09 02:47:37;;;;;;;0.80;0.80;;;;;;;-0.87;83.86;97009.84;299395;234;63009;-54
2021/01/09 02:52:41;;;;;;;0.70;0.70;;;;;;;-0.84;83.46;97004.06;299395;253;63005;-54
2021/01/09 02:57:42;;;;;;;;;;;;;;;-0.82;83.28;97012.66;299996;982;6004;-55
2021/01/09 03:02:46;;;;;;;0.80;0.80;;;;;;;-0.82;83.30;97009.19;299400;222;63009;-54
2021/01/09 03:07:50;;;;;;;0.80;0.80;;;;;;;-0.85;83.64;97015.75;299417;231;63005;-54
2021/01/09 03:12:51;;;;;;;0.80;0.80;;;;;;;-0.78;83.46;97019.19;299395;249;63009;-55
2021/01/09 03:17:54;;;;;;;0.80;0.80;;;;;;;-0.81;83.13;97024.94;299394;229;64009;-55
2021/01/09 03:22:55;;;;;;;0.80;0.80;;;;;;;-0.72;83.33;97028.97;299394;210;64009;-53
2021/01/09 03:27:56;;;;;;;0.80;0.80;;;;;;;-0.73;83.41;97032.69;299395;218;63004;-55
2021/01/09 03:32:57;;;;;;;0.80;0.80;;;;;;;-0.72;83.17;97028.97;299395;295;63009;-54
2021/01/09 03:37:58;;;;;;;0.80;0.80;;;;;;;-0.75;83.92;97034.75;299395;224;63005;-54
2021/01/09 03:43:03;;;;;;;0.80;0.80;;;;;;;-0.80;83.87;97036.44;299395;203;63009;-54
2021/01/09 03:48:05;;;;;;;0.80;0.80;;;;;;;-0.71;83.84;97038.59;299395;225;63005;-54
2021/01/09 03:53:09;;;;;;;0.80;0.80;;;;;;;-0.83;83.61;97027.00;299395;377;63009;-54
2021/01/09 03:58:10;;;;;;;0.80;0.80;;;;;;;-0.79;84.37;97035.41;299417;347;63004;-55
2021/01/09 04:03:11;;;;;;;0.80;0.80;;;;;;;-0.79;83.58;97033.53;299395;209;63009;-54
2021/01/09 04:08:12;;;;;;;0.80;0.80;;;;;;;-0.79;84.46;97038.88;299395;221;63005;-56
2021/01/09 04:13:13;;;;;;;0.80;0.80;;;;;;;-0.81;84.33;97035.59;299395;220;63009;-56
2021/01/09 04:18:14;;;;;;;0.70;0.70;;;;;;;-0.89;84.57;97038.53;299395;269;63005;-53
2021/01/09 04:23:15;;;;;;;0.80;0.80;;;;;;;-0.91;84.83;97034.44;299395;228;63009;-54
2021/01/09 04:28:16;;;;;;;0.80;0.80;;;;;;;-0.90;84.89;97041.41;299395;218;63004;-54
2021/01/09 04:33:17;;;;;;;0.80;0.80;;;;;;;-0.73;84.35;97037.19;299395;211;63009;-54
2021/01/09 04:38:18;;;;;;;0.80;0.80;;;;;;;-0.64;83.75;97035.87;299395;217;63010;-56
2021/01/09 04:43:19;;;;;;;0.80;0.80;;;;;;;-0.56;82.71;97037.44;299395;211;63009;-57
2021/01/09 04:48:21;;;;;;;0.70;0.70;;;;;;;-0.75;83.89;97040.06;299395;278;63005;-54
2021/01/09 04:53:24;;;;;;;0.80;0.80;;;;;;;-0.69;83.31;97043.69;299395;319;63009;-53
2021/01/09 04:58:25;;;;;;;0.80;0.80;;;;;;;-0.86;84.67;97048.75;299395;211;63004;-54
2021/01/09 05:03:26;;;;;;;0.80;0.80;;;;;;;-0.90;84.79;97047.56;299395;228;63009;-54
2021/01/09 05:08:27;;;;;;;0.80;0.80;;;;;;;-0.89;85.00;97043.84;299395;234;63005;-55
2021/01/09 05:13:28;;;;;;;0.80;0.80;;;;;;;-0.96;85.14;97048.41;299395;359;63008;-56
2021/01/09 05:18:31;;;;;;;0.80;0.80;;;;;;;-0.93;85.31;97048.00;299395;293;63004;-54
2021/01/09 05:23:49;;;;;;;0.80;0.80;;;;;;;-0.92;85.64;97044.28;299395;377;63022;-57
2021/01/09 05:28:53;;;;;;;0.70;0.70;;;;;;;-0.73;84.52;97051.34;299395;390;63005;-54
2021/01/09 05:33:57;;;;;;;0.70;0.70;;;;;;;-0.73;83.82;97056.66;299417;227;63009;-55
2021/01/09 05:39:01;;;;;;;0.80;0.80;;;;;;;-0.64;83.46;97056.38;299395;211;63005;-54
2021/01/09 05:44:07;;;;;;;0.80;0.80;;;;;;;-0.48;82.81;97061.97;299417;215;63014;-54
2021/01/09 05:49:10;;;;;;;0.80;0.80;;;;;;;-0.48;82.79;97066.50;299395;202;63004;-56
2021/01/09 05:54:11;;;;;;;0.80;0.80;;;;;;;-0.54;83.35;97067.34;299395;298;63009;-54
2021/01/09 05:59:15;;;;;;;0.80;0.80;;;;;;;-0.47;82.69;97066.28;299395;299;63005;-54
2021/01/09 06:04:26;;;;;;;0.80;0.80;;;;;;;-0.76;84.11;97059.75;299417;196;63009;-54
2021/01/09 06:09:33;;;;;;;0.70;0.70;;;;;;;-0.75;84.18;97072.03;299395;214;63005;-54
2021/01/09 06:14:36;;;;;;;0.80;0.80;;;;;;;-0.79;85.36;97070.84;299395;256;63009;-54
2021/01/09 06:19:37;;;;;;;0.70;0.70;;;;;;;-0.73;84.99;97069.97;299395;206;63004;-54
2021/01/09 06:24:39;;;;;;;0.80;0.80;;;;;;;-0.84;85.12;97073.34;299395;230;63009;-54
2021/01/09 06:29:48;;;;;;;0.80;0.80;;;;;;;-0.84;86.07;97077.84;299395;243;63005;-54
2021/01/09 06:34:50;;;;;;;0.70;0.70;;;;;;;-0.91;85.89;97087.72;299395;232;63009;-54
2021/01/09 06:39:52;;;;;;;0.70;0.70;;;;;;;-0.91;86.40;97090.37;299395;312;63005;-54
2021/01/09 06:44:54;;;;;;;0.70;0.70;;;;;;;-0.88;86.06;97093.44;299395;197;63009;-54
2021/01/09 06:50:15;;;;;;;0.70;0.70;;;;;;;-0.74;85.54;97089.66;299395;202;63004;-55
2021/01/09 06:55:54;;;;;;;0.70;0.70;;;;;;;-0.80;85.68;97090.53;299395;197;63009;-55
2021/01/09 07:01:18;;;;;;;0.80;0.80;;;;;;;-0.82;85.70;97092.59;299395;198;63005;-55
2021/01/09 07:07:07;;;;;;;0.80;0.80;;;;;;;-0.96;86.57;97096.34;299395;226;63009;-54
2021/01/09 07:12:10;;;;;;;0.80;0.80;;;;;;;-0.93;86.66;97106.59;299395;213;63004;-55
2021/01/09 07:17:12;;;;;;;0.80;0.80;;;;;;;-1.01;86.71;97098.84;299395;226;63009;-55
2021/01/09 07:22:21;;;;;;;0.80;0.80;;;;;;;-0.96;86.37;97106.19;299395;209;63005;-54
2021/01/09 07:27:23;;;;;;;0.80;0.80;;;;;;;-0.94;86.14;97112.94;299395;201;63008;-56
2021/01/09 07:32:56;;;;;;;0.70;0.70;;;;;;;-0.89;86.01;97113.13;299395;293;63004;-54
2021/01/09 07:38:05;;;;;;;0.70;0.70;;;;;;;-0.95;86.59;97113.16;299395;203;63009;-55
2021/01/09 07:43:47;;;;;;;0.80;0.80;;;;;;;-0.76;85.72;97118.38;299395;216;63005;-55
2021/01/09 07:48:49;;;;;;;0.80;0.80;;;;;;;-0.91;86.20;97114.38;299395;202;63009;-54
2021/01/09 07:53:50;;;;;;;0.80;0.80;;;;;;;-0.87;86.47;97121.72;299395;392;63005;-56
2021/01/09 07:58:50;;;;;;;0.90;0.90;;;;;;;-0.78;86.04;97131.09;299395;214;63009;-55
2021/01/09 08:03:53;;;;;;;0.90;0.90;;;;;;;-0.68;86.10;97136.75;299395;220;63004;-53
2021/01/09 08:08:54;;;;;;;0.80;0.80;;;;;;;-0.99;87.00;97144.72;299395;292;63009;-54
2021/01/09 08:14:03;;;;;;;3.17;2.97;;;;;;;-0.96;87.23;97154.97;299395;232;63005;-56
2021/01/09 08:19:18;;;;;;;0.80;0.80;;;;;;;-0.93;86.92;97159.84;299395;214;63009;-53
2021/01/09 08:24:25;;;;;;;0.70;0.70;;;;;;;-0.81;86.77;97158.16;299395;202;63005;-54
2021/01/09 08:29:27;;;;;;;0.80;0.80;;;;;;;-0.86;86.45;97163.31;299395;214;63009;-55
2021/01/09 08:34:28;;;;;;;0.80;0.80;;;;;;;-0.87;86.62;97164.34;299395;219;63004;-53
2021/01/09 08:39:35;;;;;;;0.80;0.80;;;;;;;-0.85;86.57;97161.47;299395;206;63009;-54
2021/01/09 08:44:49;;;;;;;0.80;0.80;;;;;;;-0.85;86.58;97172.13;299395;250;63005;-54
2021/01/09 08:49:54;;;;;;;0.80;0.80;;;;;;;-0.79;86.24;97172.09;299395;202;63008;-53
2021/01/09 08:54:59;;;;;;;0.80;0.80;;;;;;;-0.81;86.24;97176.00;299395;215;63004;-54
2021/01/09 09:00:00;;;;;;;;;;;;;;;-0.81;86.40;97184.81;299996;982;6005;-54
2021/01/09 09:05:05;;;;;;;0.80;0.80;;;;;;;-0.58;85.82;97188.75;299400;213;63008;-57
2021/01/09 09:10:08;;;;;;;0.80;0.80;;;;;;;-0.68;85.14;97184.72;299394;214;64009;-54
2021/01/09 09:15:10;;;;;;;0.80;0.80;;;;;;;-0.60;85.83;97193.47;299395;239;63009;-54
2021/01/09 09:20:15;;;;;;;0.80;0.80;;;;;;;-0.44;84.44;97190.31;299395;222;63005;-53
2021/01/09 09:25:24;;;;;;;0.80;0.80;;;;;;;-0.50;84.33;97196.50;299395;210;63009;-55
2021/01/09 09:30:26;;;;;;;0.80;0.80;;;;;;;-0.30;83.03;97202.50;299395;198;63005;-53
2021/01/09 09:35:30;;;;;;;0.80;0.80;;;;;;;-0.60;84.54;97204.97;299395;287;63020;-54
2021/01/09 09:40:33;;;;;;;0.80;0.80;;;;;;;-0.52;83.97;97215.38;299417;198;63004;-54
2021/01/09 09:45:35;;;;;;;0.80;0.80;;;;;;;-0.55;84.46;97221.13;299395;266;63009;-55
2021/01/09 09:50:36;;;;;;;0.80;0.80;;;;;;;-0.48;84.08;97223.75;299395;223;63005;-53
2021/01/09 09:55:38;;;;;;;0.90;0.90;;;;;;;-0.49;83.03;97219.47;299395;203;63009;-54
2021/01/09 10:00:46;;;;;;;0.93;0.93;;;;;;;-0.32;82.94;97215.22;299395;230;63005;-55
2021/01/09 10:06:03;;;;;;;0.80;0.80;;;;;;;-0.53;83.71;97223.59;299395;209;63009;-55
2021/01/09 10:11:07;;;;;;;0.80;0.80;;;;;;;-0.32;82.79;97220.56;299395;214;63004;-54
2021/01/09 10:16:08;;;;;;;0.80;0.80;;;;;;;-0.35;82.60;97215.69;299422;323;63009;-55
2021/01/09 10:21:09;;;;;;;3.42;3.33;;;;;;;-0.17;80.27;97213.06;299395;251;63005;-53
2021/01/09 10:26:11;;;;;;;0.80;0.80;;;;;;;-0.27;81.71;97218.06;299395;205;63009;-55
2021/01/09 10:31:12;;;;;;;0.80;0.80;;;;;;;-0.58;81.67;97216.22;299395;381;63005;-56
2021/01/09 10:36:14;;;;;;;1.10;1.10;;;;;;;-0.79;82.79;97225.38;299395;212;63009;-56
2021/01/09 10:41:18;;;;;;;0.70;0.70;;;;;;;-0.72;82.67;97220.84;299395;255;63010;-53
2021/01/09 10:46:23;;;;;;;0.80;0.80;;;;;;;-0.67;82.16;97228.97;299418;359;63009;-52
2021/01/09 10:51:29;;;;;;;0.80;0.80;;;;;;;-0.48;81.83;97221.91;299396;217;63005;-51
2021/01/09 10:56:30;;;;;;;0.80;0.80;;;;;;;-0.30;81.14;97223.00;299396;276;63008;-52
2021/01/09 11:01:31;;;;;;;0.80;0.80;;;;;;;-0.07;79.18;97204.59;299396;198;63004;-53
2021/01/09 11:06:32;;;;;;;0.80;0.80;;;;;;;0.15;79.43;97202.34;299396;203;63009;-52
2021/01/09 11:11:32;;;;;;;0.80;0.80;;;;;;;0.56;76.29;97207.91;299396;278;63004;-53
2021/01/09 11:16:34;;;;;;;0.80;0.80;;;;;;;0.31;76.97;97209.81;299396;196;63026;-52
2021/01/09 11:21:36;;;;;;;0.80;0.80;;;;;;;0.44;75.28;97209.66;299396;235;63005;-52
2021/01/09 11:26:37;;;;;;;0.80;0.80;;;;;;;0.24;76.13;97209.03;299396;216;63008;-53
2021/01/09 11:31:38;;;;;;;0.70;0.70;;;;;;;0.39;75.37;97204.16;299397;202;63004;-54
2021/01/09 11:36:39;;;;;;;0.80;0.80;;;;;;;0.48;74.72;97205.50;299397;270;63009;-53
2021/01/09 11:41:40;;;;;;;0.80;0.80;;;;;;;0.27;74.89;97203.28;299397;295;63004;-53
2021/01/09 11:46:41;;;;;;;0.80;0.80;;;;;;;0.03;74.81;97202.22;299396;228;63009;-53
2021/01/09 11:51:44;;;;;;;0.77;0.77;;;;;;;0.08;72.76;97194.41;299396;253;63007;-54
2021/01/09 11:56:45;;;;;;;0.70;0.70;;;;;;;0.29;71.46;97194.00;299396;227;63009;-58
2021/01/09 12:01:48;;;;;;;0.70;0.70;;;;;;;0.41;71.21;97191.41;299396;220;63004;-55
2021/01/09 12:06:49;;;;;;;0.80;0.80;;;;;;;0.80;69.80;97186.66;299397;207;63009;-59
2021/01/09 12:16:54;;;;;;;0.80;0.80;;;;;;;0.80;67.95;97173.31;299396;199;63009;-88
2021/01/09 12:46:59;;;;;;;0.70;0.70;;;;;;;0.26;70.70;97201.63;299395;224;63004;-88
2021/01/09 13:02:04;;;;;;;0.70;0.70;;;;;;;-0.09;69.98;97207.47;299476;83;63004;-64
2021/01/09 13:07:05;;;;;;;0.70;0.70;;;;;;;-0.21;68.38;97201.22;299395;207;63009;-72
2021/01/09 13:12:07;;;;;;;0.80;0.80;;;;;;;0.10;67.42;97202.19;299395;211;63005;-71
2021/01/09 13:17:11;;;;;;;0.70;0.70;;;;;;;0.13;68.94;97210.56;299395;218;63008;-72
2021/01/09 13:22:12;;;;;;;0.70;0.70;;;;;;;-0.11;68.42;97206.06;299395;224;63004;-70
2021/01/09 13:27:13;;;;;;;0.70;0.70;;;;;;;-0.19;69.90;97209.81;299395;206;63009;-72
2021/01/09 13:32:19;;;;;;;0.70;0.70;;;;;;;-0.17;69.66;97218.41;299395;210;63004;-71
2021/01/09 13:37:20;;;;;;;0.70;0.70;;;;;;;-0.29;69.26;97219.31;299395;229;63009;-73
2021/01/09 13:42:21;;;;;;;0.70;0.70;;;;;;;-0.13;68.35;97218.78;299395;215;63005;-70
2021/01/09 13:47:22;;;;;;;0.70;0.70;;;;;;;0.02;69.00;97210.44;299395;232;63018;-70
2021/01/09 13:52:23;;;;;;;0.70;0.70;;;;;;;-0.13;69.41;97219.63;299395;276;63004;-72
2021/01/09 13:57:24;;;;;;;0.70;0.70;;;;;;;-0.45;70.68;97228.66;299395;229;63021;-76
2021/01/09 14:02:25;;;;;;;0.80;0.80;;;;;;;-0.46;70.60;97232.38;299395;215;63004;-67
2021/01/09 14:07:26;;;;;;;0.70;0.70;;;;;;;-0.62;70.94;97246.19;299395;208;63004;-72
2021/01/09 14:12:27;;;;;;;0.80;0.80;;;;;;;-0.67;70.60;97233.50;299395;343;63005;-62
2021/01/09 14:17:28;;;;;;;0.70;0.70;;;;;;;-0.70;70.11;97245.41;299395;215;63008;-70
2021/01/09 14:22:30;;;;;;;0.70;0.70;;;;;;;-0.71;71.09;97246.44;299395;202;63004;-60
2021/01/09 14:27:31;;;;;;;0.70;0.70;;;;;;;-0.64;70.49;97243.72;299395;207;63017;-71
2021/01/09 14:32:32;;;;;;;0.70;0.70;;;;;;;-0.76;72.00;97256.09;299395;317;63005;-73
2021/01/09 14:37:36;;;;;;;0.70;0.70;;;;;;;-0.70;71.69;97266.75;299395;198;63009;-64
2021/01/09 14:42:37;;;;;;;0.70;0.70;;;;;;;-0.73;72.13;97258.34;299395;254;63005;-72
2021/01/09 14:47:37;;;;;;;0.80;0.80;;;;;;;-0.63;71.12;97261.34;299395;222;63009;-70
2021/01/09 14:52:38;;;;;;;0.80;0.80;;;;;;;-0.80;71.82;97261.03;299395;218;63020;-71
2021/01/09 14:57:39;;;;;;;0.80;0.80;;;;;;;-0.88;72.71;97269.25;299395;330;63009;-72
2021/01/09 15:02:40;;;;;;;0.80;0.80;;;;;;;-0.84;71.92;97259.00;299395;249;63005;-71
2021/01/09 15:07:41;;;;;;;0.70;0.70;;;;;;;-0.76;71.95;97262.25;299394;226;64013;-73
2021/01/09 15:12:44;;;;;;;0.80;0.80;;;;;;;-1.13;73.18;97263.00;299395;251;63005;-71
2021/01/09 15:17:45;;;;;;;0.80;0.80;;;;;;;-1.28;74.10;97268.56;299395;398;63009;-71
2021/01/09 15:22:47;;;;;;;0.80;0.80;;;;;;;-1.25;73.78;97256.69;299395;218;63004;-58
2021/01/09 15:27:48;;;;;;;2.17;2.15;;;;;;;-1.45;74.17;97262.88;299395;212;63009;-71
2021/01/09 15:32:49;;;;;;;0.80;0.80;;;;;;;-1.46;74.33;97265.75;299395;218;63005;-71
2021/01/09 15:37:50;;;;;;;0.80;0.80;;;;;;;-1.56;74.80;97260.84;299395;227;63009;-72
2021/01/09 15:42:51;;;;;;;0.80;0.80;;;;;;;-1.68;75.75;97267.81;299395;203;63005;-70
2021/01/09 15:47:52;;;;;;;0.80;0.80;;;;;;;-1.73;76.52;97278.25;299395;285;63009;-71
2021/01/09 15:52:54;;;;;;;0.80;0.80;;;;;;;-1.87;77.09;97284.62;299395;303;63004;-72
2021/01/09 15:57:54;;;;;;;0.80;0.80;;;;;;;-1.86;76.21;97291.56;299395;209;63017;-71
2021/01/09 16:02:56;;;;;;;0.80;0.80;;;;;;;-1.91;76.73;97294.03;299395;253;63005;-71
2021/01/09 16:07:56;;;;;;;0.80;0.80;;;;;;;-1.97;77.12;97284.19;299395;247;63009;-72
2021/01/09 16:12:58;;;;;;;0.80;0.80;;;;;;;-2.04;77.72;97295.66;299395;215;63009;-72
2021/01/09 16:18:04;;;;;;;0.80;0.80;;;;;;;-2.03;76.93;97286.66;299395;207;63009;-72
2021/01/09 16:23:05;;;;;;;0.80;0.80;;;;;;;-2.06;77.72;97275.59;299395;268;63004;-74
2021/01/09 16:28:09;;;;;;;0.80;0.80;;;;;;;-2.06;76.99;97284.41;299395;267;63009;-73
2021/01/09 16:33:21;;;;;;;0.90;0.90;;;;;;;-2.18;77.42;97282.56;299417;226;63005;-74
2021/01/09 16:38:22;;;;;;;0.80;0.80;;;;;;;-2.21;77.92;97282.97;299395;345;63008;-73
2021/01/09 16:43:22;;;;;;;0.80;0.80;;;;;;;-2.29;78.44;97275.16;299395;214;63000;-74
2021/01/09 16:48:23;;;;;;;0.80;0.80;;;;;;;-2.26;78.15;97282.75;299395;269;63005;-73
2021/01/09 16:53:24;;;;;;;0.80;0.80;;;;;;;-2.27;77.95;97279.28;299395;209;63004;-72
2021/01/09 16:58:26;;;;;;;0.80;0.80;;;;;;;-2.26;77.38;97285.41;299395;220;63009;-72
2021/01/09 17:03:27;;;;;;;0.90;0.90;;;;;;;-2.27;76.86;97284.59;299395;230;63005;-71
2021/01/09 17:08:28;;;;;;;0.80;0.80;;;;;;;-2.31;77.75;97283.34;299395;204;63008;-59
2021/01/09 17:13:29;;;;;;;0.80;0.80;;;;;;;-2.24;77.40;97289.50;299394;220;64004;-71
2021/01/09 17:18:30;;;;;;;0.80;0.80;;;;;;;-2.24;76.52;97284.19;299395;205;63009;-71
2021/01/09 17:23:31;;;;;;;0.80;0.80;;;;;;;-2.22;76.61;97291.97;299395;218;63004;-71
2021/01/09 17:28:32;;;;;;;0.80;0.80;;;;;;;-2.29;76.72;97291.94;299395;330;63009;-71
2021/01/09 17:33:33;;;;;;;0.80;0.80;;;;;;;-2.34;77.26;97299.69;299395;215;63005;-71
2021/01/09 17:38:34;;;;;;;0.80;0.80;;;;;;;-2.30;76.06;97295.63;299395;199;63009;-70
2021/01/09 17:43:35;;;;;;;0.80;0.80;;;;;;;-2.33;77.04;97296.00;299395;196;63004;-70
2021/01/09 17:48:36;;;;;;;0.80;0.80;;;;;;;-2.41;77.36;97296.19;299395;254;63009;-70
2021/01/09 17:53:37;;;;;;;0.80;0.80;;;;;;;-2.42;77.81;97303.34;299395;201;63005;-70
2021/01/09 17:58:38;;;;;;;0.80;0.80;;;;;;;-2.49;77.96;97299.06;299395;207;63009;-70
2021/01/09 18:03:39;;;;;;;0.80;0.80;;;;;;;-2.46;77.46;97303.97;299395;257;63005;-69
2021/01/09 18:08:40;;;;;;;0.80;0.80;;;;;;;-2.39;76.25;97307.44;299395;205;63009;-69
2021/01/09 18:13:41;;;;;;;0.80;0.80;;;;;;;-2.37;76.03;97314.19;299395;221;63010;-70
2021/01/09 18:18:42;;;;;;;0.80;0.80;;;;;;;-2.36;76.73;97317.69;299395;299;63009;-69
2021/01/09 18:23:43;;;;;;;0.80;0.80;;;;;;;-2.38;77.00;97315.22;299395;225;63004;-70
2021/01/09 18:28:46;;;;;;;0.90;0.90;;;;;;;-2.38;76.86;97314.41;299395;226;63009;-70
2021/01/09 18:33:48;;;;;;;0.80;0.80;;;;;;;-2.40;77.10;97316.44;299395;217;63020;-70
2021/01/09 18:38:50;;;;;;;0.80;0.80;;;;;;;-2.58;78.09;97313.53;299395;230;63009;-70
2021/01/09 18:43:51;;;;;;;0.80;0.80;;;;;;;-2.64;78.43;97319.63;299395;227;63004;-58
2021/01/09 18:48:52;;;;;;;0.80;0.80;;;;;;;-2.62;77.84;97322.91;299395;227;63009;-69
2021/01/09 18:53:53;;;;;;;0.80;0.80;;;;;;;-2.65;77.93;97333.94;299395;209;63005;-69
2021/01/09 18:58:54;;;;;;;0.85;0.85;;;;;;;-2.70;78.52;97338.00;299395;225;63009;-58
2021/01/09 19:03:58;;;;;;;0.80;0.80;;;;;;;-2.71;78.02;97335.56;299395;270;63005;-64
2021/01/09 19:08:58;;;;;;;0.80;0.80;;;;;;;-2.73;78.32;97333.09;299417;385;63009;-69
2021/01/09 19:13:59;;;;;;;0.80;0.80;;;;;;;-2.74;77.88;97331.44;299395;264;63004;-58
2021/01/09 19:19:00;;;;;;;0.80;0.80;;;;;;;-2.81;78.79;97338.59;299395;223;63009;-68
2021/01/09 19:24:02;;;;;;;0.80;0.80;;;;;;;-2.88;79.17;97350.19;299395;338;63005;-71
2021/01/09 19:29:04;;;;;;;0.80;0.80;;;;;;;-2.79;78.39;97368.44;299395;271;63009;-70
2021/01/09 19:34:05;;;;;;;0.80;0.80;;;;;;;-2.79;78.41;97360.47;299395;245;63004;-70
2021/01/09 19:39:06;;;;;;;0.80;0.80;;;;;;;-2.83;79.31;97369.84;299395;292;63009;-69
2021/01/09 19:44:07;;;;;;;0.80;0.80;;;;;;;-2.80;79.45;97374.75;299395;220;63004;-67
2021/01/09 19:49:08;;;;;;;0.80;0.80;;;;;;;-2.74;79.47;97379.25;299395;366;63009;-69
2021/01/09 19:54:09;;;;;;;0.90;0.90;;;;;;;-2.73;79.50;97385.41;299395;253;63012;-71
2021/01/09 19:59:11;;;;;;;0.80;0.80;;;;;;;-2.74;79.42;97389.88;299395;205;63008;-72
2021/01/09 20:04:13;;;;;;;0.80;0.80;;;;;;;-2.63;80.23;97385.03;299395;202;63004;-69
2021/01/09 20:09:15;;;;;;;0.80;0.80;;;;;;;-2.57;80.06;97387.72;299395;235;63009;-58
2021/01/09 20:14:17;;;;;;;0.80;0.80;;;;;;;-2.54;80.73;97394.50;299395;196;63004;-70
2021/01/09 20:19:17;;;;;;;0.80;0.80;;;;;;;-2.58;80.82;97398.56;299395;208;63009;-70
2021/01/09 20:24:19;;;;;;;0.80;0.80;;;;;;;-2.51;80.89;97394.09;299395;246;63005;-59
2021/01/09 20:29:23;;;;;;;0.80;0.80;;;;;;;-2.51;80.45;97399.41;299395;219;63008;-70
2021/01/09 20:34:24;;;;;;;0.80;0.80;;;;;;;-2.52;81.01;97398.59;299417;257;63004;-70
2021/01/09 20:39:25;;;;;;;0.77;0.77;;;;;;;-2.52;81.16;97405.75;299395;400;63009;-72
2021/01/09 20:44:26;;;;;;;0.80;0.80;;;;;;;-2.53;81.23;97406.75;299395;400;63005;-69
2021/01/09 20:49:28;;;;;;;0.80;0.80;;;;;;;-2.48;80.63;97414.97;299395;232;63009;-59
2021/01/09 20:54:29;;;;;;;0.80;0.80;;;;;;;-2.44;80.78;97418.88;299395;224;63005;-70
2021/01/09 20:59:30;;;;;;;0.80;0.80;;;;;;;-2.40;80.95;97420.09;299394;230;64014;-57
2021/01/09 21:04:34;;;;;;;0.90;0.90;;;;;;;-2.41;80.68;97431.72;299395;218;63004;-58
2021/01/09 21:09:37;;;;;;;0.80;0.80;;;;;;;-2.42;80.77;97430.91;299417;224;63009;-59
2021/01/09 21:14:37;;;;;;;14.27;13.52;;;;;;;-2.31;80.58;97431.38;299385;395;65005;-59
2021/01/09 21:19:39;;;;;;;0.80;0.80;;;;;;;-2.33;79.97;97428.09;299394;225;64009;-60
2021/01/09 21:24:40;;;;;;;0.90;0.90;;;;;;;-2.28;79.64;97437.09;299395;226;63005;-60
2021/01/09 21:29:41;;;;;;;0.80;0.80;;;;;;;-2.28;80.12;97436.28;299395;218;63009;-59
2021/01/09 21:34:42;;;;;;;0.80;0.80;;;;;;;-2.31;80.19;97440.16;299395;202;63008;-72
2021/01/09 21:39:43;;;;;;;0.80;0.80;;;;;;;-2.33;79.25;97433.41;299395;246;63009;-69
2021/01/09 21:44:44;;;;;;;0.80;0.80;;;;;;;-2.32;78.61;97443.00;299395;345;63005;-69
2021/01/09 21:49:47;;;;;;;0.80;0.80;;;;;;;-2.39;78.96;97440.31;299395;214;63009;-68
2021/01/09 21:54:48;;;;;;;0.80;0.80;;;;;;;-2.38;79.73;97429.50;299395;232;63005;-68
2021/01/09 21:59:49;;;;;;;0.80;0.80;;;;;;;-2.39;80.13;97440.31;299395;199;63009;-68
2021/01/09 22:04:50;;;;;;;0.80;0.80;;;;;;;-2.51;79.63;97434.78;299395;205;63004;-71
2021/01/09 22:09:52;;;;;;;0.80;0.80;;;;;;;-2.47;80.42;97432.53;299395;227;63009;-58
2021/01/09 22:14:52;;;;;;;0.80;0.80;;;;;;;-2.46;80.27;97434.19;299395;283;63005;-69
2021/01/09 22:19:53;;;;;;;0.80;0.80;;;;;;;-2.45;79.80;97433.16;299395;302;63009;-71
2021/01/09 22:24:54;;;;;;;0.80;0.80;;;;;;;-2.56;80.45;97423.09;299395;204;63005;-69
2021/01/09 22:29:55;;;;;;;0.90;0.90;;;;;;;-2.61;80.05;97417.53;299395;260;63009;-72
2021/01/09 22:34:56;;;;;;;0.80;0.80;;;;;;;-2.54;79.77;97415.75;299395;233;63004;-70
2021/01/09 22:39:57;;;;;;;0.80;0.80;;;;;;;-2.54;79.39;97410.44;299395;220;63009;-70
2021/01/09 22:44:58;;;;;;;0.70;0.70;;;;;;;-2.57;78.61;97410.81;299395;209;63005;-69
2021/01/09 22:49:59;;;;;;;0.80;0.80;;;;;;;-2.50;77.48;97401.03;299395;215;63008;-69
2021/01/09 22:55:00;;;;;;;0.80;0.80;;;;;;;-2.55;77.70;97406.12;299395;216;63005;-71
2021/01/09 23:00:22;;;;;;;0.80;0.80;;;;;;;-2.56;77.54;97399.19;299395;356;63009;-69
2021/01/09 23:05:24;;;;;;;0.80;0.80;;;;;;;-2.68;78.44;97398.09;299395;269;63004;-58
2021/01/09 23:10:25;;;;;;;0.80;0.80;;;;;;;-2.77;78.72;97390.28;299395;214;63020;-71
2021/01/09 23:15:26;;;;;;;0.80;0.80;;;;;;;-2.80;78.25;97381.91;299395;219;63005;-69
2021/01/09 23:20:27;;;;;;;1.37;1.37;;;;;;;-2.93;77.58;97372.03;299395;230;64008;-69
2021/01/09 23:25:39;;;;;;;0.82;0.82;;;;;;;-3.04;79.38;97377.88;299396;198;63004;-69
2021/01/09 23:30:40;;;;;;;0.80;0.80;;;;;;;-3.01;79.19;97377.47;299396;221;63009;-57
2021/01/09 23:35:44;;;;;;;0.80;0.80;;;;;;;-3.05;78.69;97376.22;299395;372;64004;-72
2021/01/09 23:40:46;;;;;;;0.80;0.80;;;;;;;-3.05;79.05;97378.87;299396;218;63009;-68
2021/01/09 23:45:47;;;;;;;0.80;0.80;;;;;;;-3.01;78.47;97382.78;299396;226;63005;-69
2021/01/09 23:50:48;;;;;;;0.80;0.80;;;;;;;-3.03;78.75;97384.81;299396;202;63008;-68
2021/01/09 23:55:49;;;;;;;0.80;0.80;;;;;;;-2.89;78.82;97367.97;299396;209;63004;-68
